createdAt,value
2023-08-05T00:00:43.556Z,128.11
2023-08-05T00:01:43.715Z,127.48
2023-08-05T00:02:43.700Z,129.56
2023-08-05T00:03:43.721Z,127.14
2023-08-05T00:04:43.684Z,132.61
2023-08-05T00:05:43.700Z,134.08
2023-08-05T00:06:43.655Z,133.80
2023-08-05T00:07:43.771Z,130.94
2023-08-05T00:08:43.896Z,131.51
2023-08-05T00:09:43.871Z,133.55
2023-08-05T00:10:43.828Z,132.55
2023-08-05T00:11:43.833Z,132.38
2023-08-05T00:12:43.819Z,134.64
2023-08-05T00:13:43.854Z,133.40
2023-08-05T00:14:43.959Z,135.02
2023-08-05T00:15:43.984Z,135.75
2023-08-05T00:16:44.034Z,137.54
2023-08-05T00:17:44.005Z,138.98
2023-08-05T00:18:43.992Z,137.43
2023-08-05T00:19:43.964Z,134.02
2023-08-05T00:20:43.950Z,136.32
2023-08-05T00:21:43.996Z,138.97
2023-08-05T00:22:43.955Z,140.32
2023-08-05T00:23:43.956Z,137.20
2023-08-05T00:24:43.927Z,140.25
2023-08-05T00:25:43.952Z,137.93
2023-08-05T00:26:43.960Z,138.93
2023-08-05T00:27:44.000Z,135.63
2023-08-05T00:28:44.032Z,139.46
2023-08-05T00:29:43.984Z,140.94
2023-08-05T00:30:44.096Z,138.90
2023-08-05T00:31:44.163Z,142.00
2023-08-05T00:32:44.159Z,138.47
2023-08-05T00:33:44.150Z,139.69
2023-08-05T00:34:44.216Z,142.46
2023-08-05T00:35:44.204Z,144.58
2023-08-05T00:36:44.290Z,144.97
2023-08-05T00:37:44.449Z,145.34
2023-08-05T00:38:44.466Z,142.84
2023-08-05T00:39:44.490Z,146.88
2023-08-05T00:40:44.537Z,146.61
2023-08-05T00:41:44.478Z,148.04
2023-08-05T00:42:44.463Z,154.54
2023-08-05T00:43:44.486Z,149.96
2023-08-05T00:44:44.598Z,148.90
2023-08-05T00:45:44.625Z,150.45
2023-08-05T00:46:44.582Z,152.09
2023-08-05T00:47:44.618Z,154.86
2023-08-05T00:48:44.622Z,154.08
2023-08-05T00:49:44.622Z,156.95
2023-08-05T00:50:44.621Z,158.66
2023-08-05T00:51:44.630Z,157.61
2023-08-05T00:52:44.623Z,156.60
2023-08-05T00:53:44.628Z,158.33
2023-08-05T00:54:44.650Z,158.62
2023-08-05T00:55:44.732Z,158.59
2023-08-05T00:56:44.830Z,158.42
2023-08-05T00:57:44.860Z,158.87
2023-08-05T00:58:44.809Z,157.13
2023-08-05T00:59:44.831Z,161.51
2023-08-05T01:00:44.846Z,159.35
2023-08-05T01:01:44.915Z,157.51
2023-08-05T01:02:44.997Z,164.40
2023-08-05T01:03:45.096Z,161.52
2023-08-05T01:04:45.096Z,163.35
2023-08-05T01:05:45.073Z,156.40
2023-08-05T01:06:45.101Z,156.10
2023-08-05T01:07:45.086Z,154.22
2023-08-05T01:08:45.106Z,157.42
2023-08-05T01:09:45.233Z,152.67
2023-08-05T01:10:45.223Z,151.66
2023-08-05T01:11:45.224Z,151.58
2023-08-05T01:12:45.233Z,148.95
2023-08-05T01:13:45.212Z,149.62
2023-08-05T01:14:45.225Z,147.79
2023-08-05T01:15:45.414Z,148.92
2023-08-05T01:16:45.349Z,144.35
2023-08-05T01:17:45.368Z,142.60
2023-08-05T01:18:45.345Z,142.99
2023-08-05T01:19:45.374Z,143.09
2023-08-05T01:20:45.342Z,141.51
2023-08-05T01:21:46.217Z,141.87
2023-08-05T01:22:45.521Z,142.28
2023-08-05T01:23:45.443Z,141.75
2023-08-05T01:24:45.487Z,139.66
2023-08-05T01:25:45.472Z,133.65
2023-08-05T01:26:45.500Z,134.58
2023-08-05T01:27:45.674Z,133.92
2023-08-05T01:28:45.600Z,126.99
2023-08-05T01:29:45.623Z,125.73
2023-08-05T01:30:45.671Z,121.27
2023-08-05T01:31:45.718Z,120.14
2023-08-05T01:32:45.683Z,119.28
2023-08-05T01:33:45.693Z,121.67
2023-08-05T01:34:45.802Z,122.66
2023-08-05T01:35:45.958Z,122.46
2023-08-05T01:36:45.909Z,118.16
2023-08-05T01:37:45.858Z,123.50
2023-08-05T01:38:45.871Z,125.67
2023-08-05T01:39:45.955Z,126.87
2023-08-05T01:40:45.937Z,119.82
2023-08-05T01:41:46.027Z,120.90
2023-08-05T01:42:46.055Z,123.18
2023-08-05T01:43:46.036Z,121.86
2023-08-05T01:44:46.002Z,123.74
2023-08-05T01:45:46.008Z,119.37
2023-08-05T01:46:46.089Z,115.70
2023-08-05T01:47:46.198Z,112.72
2023-08-05T01:48:46.125Z,118.99
2023-08-05T01:49:46.106Z,122.65
2023-08-05T01:50:46.119Z,120.30
2023-08-05T01:51:46.130Z,120.89
2023-08-05T01:52:46.212Z,119.44
2023-08-05T01:53:46.111Z,120.22
2023-08-05T01:54:46.187Z,119.58
2023-08-05T01:55:46.142Z,120.96
2023-08-05T01:56:46.125Z,116.26
2023-08-05T01:57:46.160Z,113.67
2023-08-05T01:58:46.203Z,112.75
2023-08-05T01:59:46.225Z,113.92
2023-08-05T02:00:46.263Z,116.21
2023-08-05T02:01:46.242Z,113.99
2023-08-05T02:02:46.396Z,114.95
2023-08-05T02:03:46.420Z,114.26
2023-08-05T02:04:46.320Z,114.20
2023-08-05T02:05:46.331Z,111.44
2023-08-05T02:06:46.341Z,111.33
2023-08-05T02:07:46.341Z,114.72
2023-08-05T02:08:46.329Z,114.61
2023-08-05T02:09:46.373Z,116.76
2023-08-05T02:10:46.465Z,112.03
2023-08-05T02:11:46.444Z,112.79
2023-08-05T02:12:46.479Z,109.61
2023-08-05T02:13:46.443Z,113.71
2023-08-05T02:14:46.482Z,114.18
2023-08-05T02:15:46.488Z,112.30
2023-08-05T02:16:46.578Z,111.89
2023-08-05T02:17:46.689Z,114.51
2023-08-05T02:18:46.844Z,114.62
2023-08-05T02:19:46.660Z,120.32
2023-08-05T02:20:46.723Z,113.08
2023-08-05T02:21:46.744Z,112.36
2023-08-05T02:22:46.768Z,114.48
2023-08-05T02:23:46.731Z,115.52
2023-08-05T02:24:46.790Z,116.99
2023-08-05T02:25:46.773Z,113.50
2023-08-05T02:26:46.786Z,114.96
2023-08-05T02:28:46.777Z,116.42
2023-08-05T02:29:46.809Z,121.62
2023-08-05T02:30:46.845Z,122.05
2023-08-05T02:31:46.824Z,123.79
2023-08-05T02:32:46.851Z,123.63
2023-08-05T02:33:46.806Z,126.81
2023-08-05T02:34:46.825Z,126.71
2023-08-05T02:35:46.906Z,124.21
2023-08-05T02:36:46.895Z,121.78
2023-08-05T02:37:46.849Z,118.55
2023-08-05T02:38:46.861Z,112.85
2023-08-05T02:39:46.868Z,113.24
2023-08-05T02:40:46.871Z,112.91
2023-08-05T02:41:46.873Z,119.70
2023-08-05T02:42:46.976Z,120.78
2023-08-05T02:43:47.104Z,121.49
2023-08-05T02:44:47.074Z,122.09
2023-08-05T02:45:47.085Z,127.48
2023-08-05T02:46:47.176Z,126.22
2023-08-05T02:47:47.136Z,127.96
2023-08-05T02:48:47.125Z,126.62
2023-08-05T02:49:47.236Z,128.18
2023-08-05T02:50:47.321Z,131.65
2023-08-05T02:51:47.311Z,132.86
2023-08-05T02:52:47.313Z,130.07
2023-08-05T02:53:47.335Z,129.45
2023-08-05T02:54:47.323Z,132.53
2023-08-05T02:55:47.405Z,136.33
2023-08-05T02:57:47.454Z,140.23
2023-08-05T02:58:47.457Z,142.89
2023-08-05T02:59:47.443Z,137.98
2023-08-05T03:00:47.460Z,140.99
2023-08-05T03:01:47.535Z,142.96
2023-08-05T03:02:47.533Z,144.83
2023-08-05T03:03:47.525Z,146.39
2023-08-05T03:04:47.491Z,144.81
2023-08-05T03:05:47.509Z,141.28
2023-08-05T03:06:47.531Z,139.53
2023-08-05T03:07:47.599Z,138.93
2023-08-05T03:08:47.570Z,139.61
2023-08-05T03:09:47.586Z,142.55
2023-08-05T03:10:47.601Z,146.05
2023-08-05T03:11:47.637Z,143.02
2023-08-05T03:12:47.645Z,142.38
2023-08-05T03:13:47.625Z,143.65
2023-08-05T03:14:47.708Z,143.73
2023-08-05T03:15:47.707Z,144.67
2023-08-05T03:16:47.738Z,144.04
2023-08-05T03:17:47.809Z,146.33
2023-08-05T03:18:47.821Z,145.03
2023-08-05T03:19:47.783Z,143.34
2023-08-05T03:20:47.795Z,145.45
2023-08-05T03:21:47.836Z,145.16
2023-08-05T03:22:47.891Z,147.38
2023-08-05T03:23:47.882Z,142.11
2023-08-05T03:24:47.914Z,141.79
2023-08-05T03:25:47.912Z,142.94
2023-08-05T03:26:48.217Z,144.11
2023-08-05T03:27:47.928Z,148.18
2023-08-05T03:28:47.898Z,148.01
2023-08-05T03:29:47.959Z,146.63
2023-08-05T03:30:47.916Z,149.13
2023-08-05T03:31:48.019Z,146.77
2023-08-05T03:32:48.019Z,147.09
2023-08-05T03:33:48.006Z,147.21
2023-08-05T03:34:48.063Z,146.58
2023-08-05T03:35:47.998Z,148.50
2023-08-05T03:36:48.331Z,149.47
2023-08-05T03:37:48.079Z,151.68
2023-08-05T03:38:48.057Z,148.68
2023-08-05T03:39:48.055Z,149.74
2023-08-05T03:40:48.086Z,147.07
2023-08-05T03:41:48.128Z,148.29
2023-08-05T03:42:48.154Z,145.37
2023-08-05T03:43:48.109Z,149.71
2023-08-05T03:44:48.199Z,151.45
2023-08-05T03:45:48.140Z,151.83
2023-08-05T03:46:48.458Z,152.78
2023-08-05T03:47:48.216Z,153.38
2023-08-05T03:48:48.229Z,158.24
2023-08-05T03:49:48.212Z,155.08
2023-08-05T03:50:48.254Z,151.99
2023-08-05T03:51:48.235Z,154.43
2023-08-05T03:52:48.349Z,155.53
2023-08-05T03:53:48.451Z,156.33
2023-08-05T03:54:48.455Z,156.82
2023-08-05T03:55:48.480Z,156.14
2023-08-05T03:56:48.856Z,155.67
2023-08-05T03:57:48.484Z,156.15
2023-08-05T03:58:48.510Z,154.96
2023-08-05T03:59:48.515Z,152.06
2023-08-05T04:00:48.543Z,147.64
2023-08-05T04:01:48.571Z,150.64
2023-08-05T04:02:48.700Z,151.90
2023-08-05T04:03:48.685Z,155.10
2023-08-05T04:04:48.735Z,154.45
2023-08-05T04:05:48.715Z,154.80
2023-08-05T04:06:49.210Z,154.11
2023-08-05T04:07:48.730Z,156.30
2023-08-05T04:08:48.772Z,159.36
2023-08-05T04:09:48.754Z,156.64
2023-08-05T04:10:48.758Z,158.44
2023-08-05T04:11:48.774Z,159.58
2023-08-05T04:12:48.932Z,159.62
2023-08-05T04:13:48.914Z,162.47
2023-08-05T04:14:48.935Z,162.61
2023-08-05T04:15:48.984Z,158.34
2023-08-05T04:16:49.170Z,160.70
2023-08-05T04:17:48.994Z,161.72
2023-08-05T04:18:48.928Z,159.67
2023-08-05T04:19:48.976Z,159.69
2023-08-05T04:20:48.953Z,159.85
2023-08-05T04:21:49.184Z,157.57
2023-08-05T04:22:49.105Z,161.93
2023-08-05T04:23:49.067Z,159.81
2023-08-05T04:24:49.117Z,157.02
2023-08-05T04:25:49.147Z,156.43
2023-08-05T04:26:49.304Z,158.78
2023-08-05T04:27:49.158Z,155.47
2023-08-05T04:28:49.211Z,154.60
2023-08-05T04:29:49.166Z,159.82
2023-08-05T04:30:49.151Z,162.00
2023-08-05T04:31:49.227Z,160.15
2023-08-05T04:32:49.322Z,161.28
2023-08-05T04:33:49.322Z,161.93
2023-08-05T04:34:49.295Z,161.69
2023-08-05T04:35:49.361Z,162.42
2023-08-05T04:36:49.612Z,159.77
2023-08-05T04:37:49.416Z,161.56
2023-08-05T04:38:49.435Z,162.71
2023-08-05T04:39:49.453Z,160.13
2023-08-05T04:40:49.517Z,161.83
2023-08-05T04:41:49.490Z,163.06
2023-08-05T04:42:49.561Z,161.45
2023-08-05T04:43:49.558Z,161.14
2023-08-05T04:44:49.589Z,161.33
2023-08-05T04:45:49.680Z,162.47
2023-08-05T04:46:49.908Z,161.83
2023-08-05T04:47:49.665Z,159.70
2023-08-05T04:48:49.589Z,158.58
2023-08-05T04:49:49.610Z,160.15
2023-08-05T04:50:49.675Z,158.95
2023-08-05T04:51:49.672Z,153.82
2023-08-05T04:52:49.675Z,155.56
2023-08-05T04:53:49.705Z,161.75
2023-08-05T04:54:49.700Z,165.87
2023-08-05T04:55:49.751Z,165.90
2023-08-05T04:56:49.943Z,165.58
2023-08-05T04:57:49.878Z,166.87
2023-08-05T04:58:49.781Z,165.48
2023-08-05T04:59:49.822Z,169.79
2023-08-05T05:00:49.829Z,170.81
2023-08-05T05:01:49.867Z,170.08
2023-08-05T05:02:49.982Z,169.45
2023-08-05T05:03:49.940Z,167.53
2023-08-05T05:04:49.914Z,168.57
2023-08-05T05:05:49.926Z,170.34
2023-08-05T05:06:50.193Z,170.80
2023-08-05T05:07:50.080Z,169.96
2023-08-05T05:08:50.034Z,168.70
2023-08-05T05:09:50.041Z,172.81
2023-08-05T05:10:50.047Z,169.77
2023-08-05T05:11:50.149Z,169.95
2023-08-05T05:12:50.132Z,170.24
2023-08-05T05:13:50.179Z,172.14
2023-08-05T05:14:50.150Z,172.72
2023-08-05T05:15:50.249Z,175.93
2023-08-05T05:16:50.461Z,175.26
2023-08-05T05:17:50.240Z,173.84
2023-08-05T05:18:50.238Z,171.52
2023-08-05T05:19:50.219Z,169.31
2023-08-05T05:20:50.303Z,169.15
2023-08-05T05:21:50.311Z,169.83
2023-08-05T05:22:50.416Z,169.47
2023-08-05T05:23:50.457Z,170.15
2023-08-05T05:24:50.441Z,169.79
2023-08-05T05:25:50.430Z,172.86
2023-08-05T05:26:50.820Z,172.05
2023-08-05T05:27:50.466Z,173.34
2023-08-05T05:28:50.521Z,172.26
2023-08-05T05:29:50.542Z,172.78
2023-08-05T05:30:50.584Z,171.63
2023-08-05T05:31:50.544Z,173.74
2023-08-05T05:32:50.721Z,172.24
2023-08-05T05:33:50.652Z,171.49
2023-08-05T05:34:50.675Z,172.61
2023-08-05T05:35:50.690Z,173.20
2023-08-05T05:36:50.784Z,174.88
2023-08-05T05:37:50.713Z,172.72
2023-08-05T05:38:50.815Z,174.63
2023-08-05T05:39:50.792Z,174.82
2023-08-05T05:40:50.837Z,175.63
2023-08-05T05:41:50.821Z,176.72
2023-08-05T05:42:50.811Z,175.27
2023-08-05T05:43:50.843Z,173.34
2023-08-05T05:44:50.851Z,174.70
2023-08-05T05:45:50.872Z,173.41
2023-08-05T05:46:51.054Z,174.96
2023-08-05T05:47:50.976Z,173.69
2023-08-05T05:48:50.923Z,173.58
2023-08-05T05:49:50.983Z,173.41
2023-08-05T05:50:50.959Z,172.68
2023-08-05T05:51:50.937Z,168.83
2023-08-05T05:52:51.076Z,171.88
2023-08-05T05:53:51.072Z,169.54
2023-08-05T05:54:51.185Z,172.61
2023-08-05T05:55:51.163Z,173.88
2023-08-05T05:56:51.397Z,173.77
2023-08-05T05:57:51.212Z,175.63
2023-08-05T05:58:51.281Z,172.92
2023-08-05T05:59:51.244Z,177.69
2023-08-05T06:00:51.382Z,182.73
2023-08-05T06:01:51.394Z,183.13
2023-08-05T06:02:51.402Z,183.51
2023-08-05T06:03:51.690Z,186.07
2023-08-05T06:04:51.703Z,184.67
2023-08-05T06:05:51.535Z,184.21
2023-08-05T06:06:51.764Z,184.39
2023-08-05T06:07:51.497Z,186.37
2023-08-05T06:08:51.586Z,186.54
2023-08-05T06:09:51.534Z,189.04
2023-08-05T06:10:51.541Z,187.24
2023-08-05T06:11:51.569Z,186.09
2023-08-05T06:12:51.599Z,187.38
2023-08-05T06:13:51.780Z,190.21
2023-08-05T06:14:51.593Z,188.10
2023-08-05T06:15:51.625Z,186.32
2023-08-05T06:16:52.112Z,184.79
2023-08-05T06:17:51.807Z,186.69
2023-08-05T06:18:51.767Z,188.46
2023-08-05T06:19:51.757Z,189.34
2023-08-05T06:20:51.811Z,190.90
2023-08-05T06:21:52.115Z,188.87
2023-08-05T06:22:51.809Z,187.25
2023-08-05T06:23:52.310Z,189.11
2023-08-05T06:24:51.847Z,192.93
2023-08-05T06:25:51.839Z,185.95
2023-08-05T06:26:52.128Z,187.74
2023-08-05T06:27:51.932Z,190.26
2023-08-05T06:28:51.875Z,192.48
2023-08-05T06:29:51.917Z,190.86
2023-08-05T06:30:51.946Z,189.81
2023-08-05T06:31:52.313Z,187.01
2023-08-05T06:32:51.939Z,183.40
2023-08-05T06:33:51.946Z,182.31
2023-08-05T06:34:51.958Z,185.42
2023-08-05T06:35:51.979Z,182.76
2023-08-05T06:36:51.930Z,177.69
2023-08-05T06:37:52.045Z,174.61
2023-08-05T06:38:51.998Z,173.87
2023-08-05T06:39:52.062Z,171.57
2023-08-05T06:40:52.035Z,168.86
2023-08-05T06:41:52.440Z,166.62
2023-08-05T06:42:52.073Z,169.98
2023-08-05T06:43:52.089Z,170.87
2023-08-05T06:44:52.062Z,172.92
2023-08-05T06:45:52.114Z,168.51
2023-08-05T06:46:52.106Z,168.25
2023-08-05T06:47:52.263Z,165.81
2023-08-05T06:48:52.301Z,164.49
2023-08-05T06:49:52.415Z,166.30
2023-08-05T06:50:52.537Z,164.64
2023-08-05T06:51:53.686Z,165.73
2023-08-05T06:52:52.565Z,164.82
2023-08-05T06:53:52.575Z,162.56
2023-08-05T06:54:52.605Z,162.27
2023-08-05T06:55:52.569Z,159.93
2023-08-05T06:56:52.596Z,158.10
2023-08-05T06:57:52.669Z,161.68
2023-08-05T06:58:52.784Z,151.38
2023-08-05T06:59:52.753Z,147.97
2023-08-05T07:00:52.754Z,151.09
2023-08-05T07:01:52.928Z,152.13
2023-08-05T07:02:52.779Z,152.68
2023-08-05T07:03:52.939Z,154.77
2023-08-05T07:04:52.903Z,156.40
2023-08-05T07:05:52.860Z,151.59
2023-08-05T07:06:52.862Z,160.83
2023-08-05T07:07:54.851Z,157.24
2023-08-05T07:08:52.857Z,160.62
2023-08-05T07:09:53.008Z,155.75
2023-08-05T07:10:52.898Z,151.94
2023-08-05T07:11:53.034Z,154.22
2023-08-05T07:12:52.860Z,155.39
2023-08-05T07:13:52.824Z,150.30
2023-08-05T07:14:52.843Z,150.79
2023-08-05T07:15:52.879Z,149.40
2023-08-05T07:16:52.809Z,144.62
2023-08-05T07:17:52.846Z,147.13
2023-08-05T07:18:52.819Z,146.27
2023-08-05T07:19:52.816Z,146.92
2023-08-05T07:20:52.804Z,138.76
2023-08-05T07:21:53.045Z,137.25
2023-08-05T07:22:52.809Z,137.08
2023-08-05T07:23:52.795Z,137.15
2023-08-05T07:24:52.752Z,135.48
2023-08-05T07:25:52.754Z,130.98
2023-08-05T07:26:52.759Z,134.79
2023-08-05T07:27:52.774Z,137.37
2023-08-05T07:28:52.757Z,136.85
2023-08-05T07:29:52.750Z,132.39
2023-08-05T07:30:52.780Z,127.96
2023-08-05T07:31:52.929Z,129.30
2023-08-05T07:32:52.725Z,127.84
2023-08-05T07:33:52.721Z,127.57
2023-08-05T07:34:52.733Z,129.98
2023-08-05T07:35:52.707Z,128.32
2023-08-05T07:36:52.682Z,124.27
2023-08-05T07:37:52.648Z,120.12
2023-08-05T07:38:52.724Z,118.00
2023-08-05T07:39:52.726Z,116.72
2023-08-05T07:40:52.647Z,115.87
2023-08-05T07:41:52.955Z,114.58
2023-08-05T07:42:52.683Z,109.48
2023-08-05T07:43:52.617Z,111.82
2023-08-05T07:44:52.627Z,109.55
2023-08-05T07:45:52.680Z,108.49
2023-08-05T07:46:52.624Z,109.28
2023-08-05T07:47:52.663Z,104.14
2023-08-05T07:48:52.605Z,104.61
2023-08-05T07:49:52.575Z,100.19
2023-08-05T07:50:52.573Z,103.05
2023-08-05T07:51:52.751Z,101.41
2023-08-05T07:52:52.584Z,94.73
2023-08-05T07:53:52.555Z,92.71
2023-08-05T07:54:52.546Z,93.61
2023-08-05T07:55:52.565Z,83.01
2023-08-05T07:56:52.529Z,84.07
2023-08-05T07:57:52.522Z,87.69
2023-08-05T07:58:52.565Z,88.95
2023-08-05T07:59:52.545Z,88.20
2023-08-05T08:00:52.526Z,81.78
2023-08-05T08:01:52.658Z,78.64
2023-08-05T08:02:52.553Z,76.31
2023-08-05T08:03:52.553Z,79.10
2023-08-05T08:04:52.478Z,78.85
2023-08-05T08:05:52.452Z,79.48
2023-08-05T08:06:52.471Z,78.96
2023-08-05T08:07:52.499Z,81.44
2023-08-05T08:08:52.525Z,80.66
2023-08-05T08:09:52.444Z,85.56
2023-08-05T08:10:52.433Z,86.75
2023-08-05T08:11:52.784Z,84.24
2023-08-05T08:12:52.421Z,80.87
2023-08-05T08:13:52.447Z,79.99
2023-08-05T08:14:52.396Z,75.17
2023-08-05T08:15:52.462Z,75.13
2023-08-05T08:16:52.403Z,78.61
2023-08-05T08:17:52.407Z,76.89
2023-08-05T08:18:52.462Z,72.50
2023-08-05T08:19:52.367Z,62.46
2023-08-05T08:20:52.483Z,64.46
2023-08-05T08:21:52.845Z,58.79
2023-08-05T08:22:52.533Z,50.94
2023-08-05T08:23:52.595Z,55.17
2023-08-05T08:24:52.663Z,60.35
2023-08-05T08:25:52.789Z,61.02
2023-08-05T08:26:52.812Z,55.73
2023-08-05T08:27:52.845Z,58.69
2023-08-05T08:28:52.892Z,53.34
2023-08-05T08:29:52.961Z,54.63
2023-08-05T08:30:53.030Z,57.75
2023-08-05T08:31:53.500Z,59.75
2023-08-05T08:32:53.275Z,61.98
2023-08-05T08:33:53.200Z,62.10
2023-08-05T08:34:53.255Z,60.58
2023-08-05T08:35:53.329Z,58.94
2023-08-05T08:36:53.384Z,61.27
2023-08-05T08:37:53.448Z,64.46
2023-08-05T08:38:53.487Z,61.10
2023-08-05T08:39:53.602Z,66.40
2023-08-05T08:40:53.629Z,64.18
2023-08-05T08:41:53.758Z,69.80
2023-08-05T08:42:53.732Z,61.86
2023-08-05T08:43:53.835Z,67.70
2023-08-05T08:44:53.880Z,67.29
2023-08-05T08:45:54.018Z,70.99
2023-08-05T08:46:54.007Z,68.56
2023-08-05T08:47:54.129Z,75.66
2023-08-05T08:48:54.120Z,69.92
2023-08-05T08:49:54.213Z,67.91
2023-08-05T08:50:54.405Z,71.98
2023-08-05T08:51:54.345Z,71.77
2023-08-05T08:52:54.393Z,75.23
2023-08-05T08:53:54.460Z,77.66
2023-08-05T08:54:54.535Z,80.81
2023-08-05T08:55:54.632Z,80.11
2023-08-05T08:56:54.664Z,82.23
2023-08-05T08:57:54.674Z,80.63
2023-08-05T08:58:54.750Z,80.37
2023-08-05T08:59:54.832Z,71.45
2023-08-05T09:00:54.910Z,66.01
2023-08-05T09:01:54.934Z,75.42
2023-08-05T09:02:55.084Z,75.31
2023-08-05T09:03:55.069Z,77.72
2023-08-05T09:04:55.159Z,79.43
2023-08-05T09:05:55.158Z,86.10
2023-08-05T09:06:55.267Z,84.46
2023-08-05T09:07:55.334Z,75.61
2023-08-05T09:08:55.414Z,74.56
2023-08-05T09:09:55.437Z,68.17
2023-08-05T09:10:55.476Z,73.12
2023-08-05T09:11:55.549Z,71.68
2023-08-05T09:12:55.617Z,68.00
2023-08-05T09:13:55.674Z,66.81
2023-08-05T09:14:55.726Z,70.89
2023-08-05T09:15:55.945Z,67.55
2023-08-05T09:16:55.881Z,67.22
2023-08-05T09:17:55.981Z,70.41
2023-08-05T09:18:57.439Z,80.14
2023-08-05T09:19:56.003Z,82.14
2023-08-05T09:20:55.951Z,79.93
2023-08-05T09:21:55.987Z,75.58
2023-08-05T09:22:55.987Z,69.89
2023-08-05T09:23:55.962Z,71.44
2023-08-05T09:24:55.942Z,68.25
2023-08-05T09:25:56.000Z,71.69
2023-08-05T09:26:55.966Z,77.25
2023-08-05T09:27:55.923Z,77.37
2023-08-05T09:28:55.921Z,82.30
2023-08-05T09:29:55.998Z,74.31
2023-08-05T09:30:55.921Z,76.74
2023-08-05T09:31:55.925Z,76.02
2023-08-05T09:32:55.984Z,83.61
2023-08-05T09:33:55.866Z,84.16
2023-08-05T09:34:55.876Z,87.77
2023-08-05T09:35:55.886Z,82.40
2023-08-05T09:36:55.903Z,90.64
2023-08-05T09:37:55.981Z,88.88
2023-08-05T09:38:55.820Z,84.92
2023-08-05T09:39:55.845Z,85.37
2023-08-05T09:40:55.858Z,89.42
2023-08-05T09:41:55.830Z,92.07
2023-08-05T09:42:55.787Z,86.61
2023-08-05T09:43:55.845Z,88.00
2023-08-05T09:44:55.943Z,94.66
2023-08-05T09:45:55.888Z,98.36
2023-08-05T09:46:55.810Z,96.41
2023-08-05T09:47:55.836Z,97.15
2023-08-05T09:48:55.859Z,95.69
2023-08-05T09:49:55.927Z,93.14
2023-08-05T09:50:55.982Z,95.33
2023-08-05T09:51:56.030Z,98.36
2023-08-05T09:52:56.058Z,99.76
2023-08-05T09:53:56.108Z,96.35
2023-08-05T09:54:56.224Z,96.56
2023-08-05T09:55:56.245Z,97.25
2023-08-05T09:56:56.305Z,93.94
2023-08-05T09:57:56.317Z,94.59
2023-08-05T09:58:56.378Z,93.38
2023-08-05T09:59:56.425Z,98.14
2023-08-05T10:00:56.523Z,91.62
2023-08-05T10:01:57.312Z,94.25
2023-08-05T10:02:56.654Z,95.52
2023-08-05T10:03:56.657Z,102.34
2023-08-05T10:04:56.700Z,96.95
2023-08-05T10:05:56.748Z,100.69
2023-08-05T10:06:56.825Z,97.37
2023-08-05T10:07:56.882Z,100.42
2023-08-05T10:08:56.880Z,102.61
2023-08-05T10:09:56.950Z,102.12
2023-08-05T10:10:57.021Z,105.79
2023-08-05T10:11:57.092Z,103.63
2023-08-05T10:12:57.110Z,101.54
2023-08-05T10:13:57.177Z,96.93
2023-08-05T10:14:57.215Z,99.96
2023-08-05T10:15:57.222Z,98.73
2023-08-05T10:16:57.354Z,95.37
2023-08-05T10:17:57.364Z,101.90
2023-08-05T10:18:57.381Z,102.16
2023-08-05T10:19:57.470Z,100.82
2023-08-05T10:20:57.511Z,107.78
2023-08-05T10:21:57.653Z,104.83
2023-08-05T10:22:57.604Z,103.84
2023-08-05T10:23:57.617Z,109.36
2023-08-05T10:24:57.677Z,104.01
2023-08-05T10:25:57.734Z,98.77
2023-08-05T10:26:57.712Z,96.30
2023-08-05T10:27:57.804Z,104.25
2023-08-05T10:28:57.827Z,107.01
2023-08-05T10:29:57.863Z,100.42
2023-08-05T10:30:57.883Z,98.01
2023-08-05T10:31:57.935Z,97.21
2023-08-05T10:32:58.022Z,101.79
2023-08-05T10:33:58.000Z,105.10
2023-08-05T10:34:58.068Z,106.26
2023-08-05T10:35:58.065Z,104.08
2023-08-05T10:36:58.120Z,105.22
2023-08-05T10:37:58.221Z,102.73
2023-08-05T10:38:58.203Z,99.15
2023-08-05T10:39:58.243Z,98.72
2023-08-05T10:40:58.258Z,97.89
2023-08-05T10:41:58.286Z,94.97
2023-08-05T10:42:58.325Z,95.27
2023-08-05T10:43:58.376Z,96.56
2023-08-05T10:44:58.411Z,96.28
2023-08-05T10:45:58.491Z,92.15
2023-08-05T10:46:58.468Z,88.38
2023-08-05T10:47:58.545Z,94.58
2023-08-05T10:48:58.558Z,100.27
2023-08-05T10:50:01.406Z,101.85
2023-08-05T10:50:58.688Z,102.01
2023-08-05T10:51:58.550Z,102.61
2023-08-05T10:52:58.586Z,102.91
2023-08-05T10:53:58.560Z,106.21
2023-08-05T10:54:58.587Z,104.90
2023-08-05T10:55:58.589Z,102.29
2023-08-05T10:56:58.549Z,100.33
2023-08-05T10:57:58.549Z,101.66
2023-08-05T10:58:58.526Z,98.76
2023-08-05T10:59:58.567Z,103.26
2023-08-05T11:00:58.537Z,100.83
2023-08-05T11:01:59.768Z,97.45
2023-08-05T11:02:58.744Z,102.66
2023-08-05T11:03:58.527Z,99.86
2023-08-05T11:04:58.453Z,102.15
2023-08-05T11:05:58.490Z,99.42
2023-08-05T11:06:58.495Z,103.38
2023-08-05T11:07:58.489Z,101.35
2023-08-05T11:08:58.469Z,99.77
2023-08-05T11:09:58.501Z,97.61
2023-08-05T11:10:58.469Z,102.36
2023-08-05T11:11:58.408Z,107.39
2023-08-05T11:12:58.463Z,103.39
2023-08-05T11:13:58.468Z,105.36
2023-08-05T11:14:58.494Z,98.97
2023-08-05T11:15:58.607Z,96.61
2023-08-05T11:16:58.648Z,100.63
2023-08-05T11:17:58.689Z,102.50
2023-08-05T11:18:58.674Z,101.55
2023-08-05T11:19:58.725Z,109.90
2023-08-05T11:20:58.800Z,104.17
2023-08-05T11:21:58.803Z,102.30
2023-08-05T11:22:58.830Z,103.55
2023-08-05T11:23:59.006Z,100.30
2023-08-05T11:24:58.933Z,97.22
2023-08-05T11:25:58.955Z,108.70
2023-08-05T11:26:59.033Z,106.71
2023-08-05T11:27:59.042Z,109.85
2023-08-05T11:28:59.218Z,111.86
2023-08-05T11:30:03.770Z,117.51
2023-08-05T11:31:00.123Z,114.84
2023-08-05T11:31:59.273Z,113.77
2023-08-05T11:32:59.111Z,113.72
2023-08-05T11:33:59.122Z,116.53
2023-08-05T11:34:59.088Z,118.74
2023-08-05T11:35:59.071Z,115.62
2023-08-05T11:36:59.082Z,116.60
2023-08-05T11:37:59.126Z,111.35
2023-08-05T11:38:59.318Z,111.70
2023-08-05T11:39:59.030Z,114.92
2023-08-05T11:40:59.092Z,110.68
2023-08-05T11:41:59.049Z,115.55
2023-08-05T11:42:59.065Z,118.21
2023-08-05T11:43:59.140Z,116.74
2023-08-05T11:44:59.118Z,114.57
2023-08-05T11:45:59.215Z,116.62
2023-08-05T11:47:02.770Z,118.00
2023-08-05T11:48:00.230Z,118.17
2023-08-05T11:48:59.231Z,118.42
2023-08-05T11:49:59.180Z,119.01
2023-08-05T11:50:59.183Z,120.44
2023-08-05T11:51:59.165Z,117.02
2023-08-05T11:52:59.937Z,111.44
2023-08-05T11:53:59.191Z,107.54
2023-08-05T11:54:59.149Z,111.96
2023-08-05T11:55:59.153Z,115.53
2023-08-05T11:56:59.129Z,118.73
2023-08-05T11:57:59.184Z,119.24
2023-08-05T11:58:59.178Z,123.26
2023-08-05T11:59:59.206Z,128.63
2023-08-05T12:00:59.293Z,125.00
2023-08-05T12:01:59.324Z,127.01
2023-08-05T12:02:59.401Z,131.06
2023-08-05T12:03:59.528Z,129.23
2023-08-05T12:05:02.667Z,116.15
2023-08-05T12:05:59.410Z,116.45
2023-08-05T12:06:59.430Z,118.05
2023-08-05T12:07:59.414Z,119.07
2023-08-05T12:08:59.413Z,125.13
2023-08-05T12:09:59.377Z,125.01
2023-08-05T12:10:59.409Z,128.60
2023-08-05T12:11:59.392Z,122.93
2023-08-05T12:12:59.377Z,123.50
2023-08-05T12:13:59.371Z,129.22
2023-08-05T12:14:59.365Z,132.41
2023-08-05T12:15:59.387Z,134.93
2023-08-05T12:16:59.347Z,140.28
2023-08-05T12:17:59.502Z,140.30
2023-08-05T12:18:59.392Z,139.55
2023-08-05T12:19:59.370Z,140.00
2023-08-05T12:20:59.303Z,140.61
2023-08-05T12:21:59.305Z,143.81
2023-08-05T12:22:59.317Z,142.52
2023-08-05T12:23:59.379Z,143.70
2023-08-05T12:24:59.402Z,143.47
2023-08-05T12:25:59.496Z,142.25
2023-08-05T12:26:59.492Z,136.45
2023-08-05T12:27:59.999Z,141.09
2023-08-05T12:28:59.560Z,140.19
2023-08-05T12:29:59.593Z,137.03
2023-08-05T12:30:59.602Z,143.19
2023-08-05T12:31:59.665Z,137.92
2023-08-05T12:32:59.755Z,137.23
2023-08-05T12:33:59.726Z,136.97
2023-08-05T12:34:59.748Z,134.35
2023-08-05T12:35:59.817Z,137.51